Airfield :
LOGIN :

Register | Disclaimer

   EN    FR    IT 

 










Legend :    VFR   Marginal VFR   IFR   Intensive IFR   Very Intensive IFR
Visi :
Ceiling :
>= 8 km
>= 3000ft
5 to 8 km
1000 to 3000 ft
1500m to 5 km
500 to 1000 ft
800 to 1500m
200 to 500 ft
< 800m
< 200 ft
Symbols :   Thunderstorms  Fog  Heavy snow  Heavy precipitations  Wind > 20 kt
SIGMETs :     Misc.  Thunderstorms  Icing  Turbulence  Mountain Waves  Volcanic Ashes






- Airport Elevation : 157 ft
- IATA code : SXF


EDDB - Berlin Schönefeld

CURRENT METAR :
  • 240620Z 26015KT 9999 BKN018 04/01 Q1018 TEMPO 27015G25KT

EXPIRED METARs :
  • 240550Z 26014KT 9999 BKN022 BKN034 04/01 Q1018 TEMPO 27015G25KT
  • 240520Z 26018KT 9999 BKN020 04/01 Q1018 TEMPO 27015G25KT
  • 240450Z 26017KT 9999 BKN020 04/01 Q1017 TEMPO 27020G30KT
  • 240420Z 26017KT 9999 BKN023 04/01 Q1017 TEMPO 27020G30KT
  • 240350Z 26018KT 9999 BKN025 04/01 Q1017 TEMPO 27020G30KT

TAF TAF EDDB
Valid from the 24 at 06:00 until the 25 at 06:00 UTC


240500Z 2406/2506 26015KT 9999 BKN025
TEMPO 2406/2412 26015G25KT
BECMG 2413/2415 18011KT
TEMPO 2417/2423 4500 RA BKN008
BECMG 2418/2421 BKN012
BECMG 2423/2501 22015G25KT BKN030



MET'MAP, your aeronautical weather chart ! - Copyright ORBIFLY December 2007 - Disclaimer

ORBIFLY MET'MAP TEAM :

Programming & Development : Alexandra Zaïnal
Concept & original design : Baudouin d'Aumeries
Assistance for programming : Marc-Olivier Méhu
Technical & hardware support : Manuel Goepfert

Contact : metmap@orbifly.com




SOURCES & CREDITS :

   NOAA